sensor_id;sensor_type;location;lat;lon;timestamp;pressure;altitude;pressure_sealevel;temperature;humidity
7760;BME280;3924;48.830;9.262;2023-05-29T00:01:59;98554.38;;;17.20;53.61
7760;BME280;3924;48.830;9.262;2023-05-29T00:04:25;98562.53;;;17.08;53.85
7760;BME280;3924;48.830;9.262;2023-05-29T00:06:52;98562.28;;;17.01;54.00
7760;BME280;3924;48.830;9.262;2023-05-29T00:09:18;98555.88;;;16.97;54.06
7760;BME280;3924;48.830;9.262;2023-05-29T00:11:45;98568.28;;;16.94;54.07
7760;BME280;3924;48.830;9.262;2023-05-29T00:14:17;98567.19;;;16.95;53.83
7760;BME280;3924;48.830;9.262;2023-05-29T00:16:46;98558.81;;;16.92;54.13
7760;BME280;3924;48.830;9.262;2023-05-29T00:19:13;98555.41;;;16.95;54.21
7760;BME280;3924;48.830;9.262;2023-05-29T00:21:40;98557.22;;;16.91;54.07
7760;BME280;3924;48.830;9.262;2023-05-29T00:24:07;98561.88;;;16.90;54.49
7760;BME280;3924;48.830;9.262;2023-05-29T00:26:34;98556.41;;;16.90;54.37
7760;BME280;3924;48.830;9.262;2023-05-29T00:29:00;98550.78;;;16.87;54.40
7760;BME280;3924;48.830;9.262;2023-05-29T00:31:27;98554.47;;;16.91;54.28
7760;BME280;3924;48.830;9.262;2023-05-29T00:33:54;98553.69;;;16.90;54.37
7760;BME280;3924;48.830;9.262;2023-05-29T00:36:21;98561.75;;;16.87;54.67
7760;BME280;3924;48.830;9.262;2023-05-29T00:38:48;98548.28;;;16.82;54.70
7760;BME280;3924;48.830;9.262;2023-05-29T00:41:15;98546.06;;;16.66;54.57
7760;BME280;3924;48.830;9.262;2023-05-29T00:43:42;98549.88;;;16.53;55.18
7760;BME280;3924;48.830;9.262;2023-05-29T00:46:13;98547.00;;;16.50;55.29
7760;BME280;3924;48.830;9.262;2023-05-29T00:48:41;98541.53;;;16.50;55.01
7760;BME280;3924;48.830;9.262;2023-05-29T00:51:10;98543.00;;;16.47;55.36
7760;BME280;3924;48.830;9.262;2023-05-29T00:53:40;98542.91;;;16.35;55.31
7760;BME280;3924;48.830;9.262;2023-05-29T00:56:07;98541.22;;;16.22;55.43
7760;BME280;3924;48.830;9.262;2023-05-29T00:58:35;98554.59;;;16.14;55.71
7760;BME280;3924;48.830;9.262;2023-05-29T01:01:02;98545.44;;;16.10;55.90
7760;BME280;3924;48.830;9.262;2023-05-29T01:03:30;98542.53;;;16.16;55.85
7760;BME280;3924;48.830;9.262;2023-05-29T01:05:58;98540.25;;;16.18;55.70
7760;BME280;3924;48.830;9.262;2023-05-29T01:08:25;98543.16;;;16.12;55.86
7760;BME280;3924;48.830;9.262;2023-05-29T01:10:56;98545.44;;;16.10;55.85
7760;BME280;3924;48.830;9.262;2023-05-29T01:13:29;98542.25;;;16.08;55.91
7760;BME280;3924;48.830;9.262;2023-05-29T01:16:01;98535.16;;;16.07;55.97
7760;BME280;3924;48.830;9.262;2023-05-29T01:18:51;98546.56;;;16.09;56.08
7760;BME280;3924;48.830;9.262;2023-05-29T01:24:13;98535.47;;;16.14;56.09
7760;BME280;3924;48.830;9.262;2023-05-29T01:27:01;98538.66;;;16.17;56.02
7760;BME280;3924;48.830;9.262;2023-05-29T01:29:32;98538.19;;;16.14;56.31
7760;BME280;3924;48.830;9.262;2023-05-29T01:32:01;98541.56;;;16.11;56.36
7760;BME280;3924;48.830;9.262;2023-05-29T01:34:30;98535.63;;;16.09;56.32
7760;BME280;3924;48.830;9.262;2023-05-29T01:36:57;98533.56;;;16.06;56.35
7760;BME280;3924;48.830;9.262;2023-05-29T01:39:24;98539.03;;;16.06;56.46
7760;BME280;3924;48.830;9.262;2023-05-29T01:41:52;98540.34;;;16.00;56.57
7760;BME280;3924;48.830;9.262;2023-05-29T01:44:20;98540.53;;;15.95;56.36
7760;BME280;3924;48.830;9.262;2023-05-29T01:46:48;98546.16;;;15.90;56.77
7760;BME280;3924;48.830;9.262;2023-05-29T01:49:16;98550.69;;;15.86;56.77
7760;BME280;3924;48.830;9.262;2023-05-29T01:51:43;98540.56;;;15.78;56.82
7760;BME280;3924;48.830;9.262;2023-05-29T01:54:10;98540.88;;;15.85;57.12
7760;BME280;3924;48.830;9.262;2023-05-29T01:56:37;98551.16;;;15.88;56.80
7760;BME280;3924;48.830;9.262;2023-05-29T01:59:05;98547.31;;;15.89;57.02
7760;BME280;3924;48.830;9.262;2023-05-29T02:01:34;98553.56;;;15.90;56.93
7760;BME280;3924;48.830;9.262;2023-05-29T02:04:01;98554.25;;;15.86;56.92
7760;BME280;3924;48.830;9.262;2023-05-29T02:06:27;98552.16;;;15.83;57.12
7760;BME280;3924;48.830;9.262;2023-05-29T02:08:54;98543.31;;;15.78;57.06
7760;BME280;3924;48.830;9.262;2023-05-29T02:11:20;98551.22;;;15.79;57.16
7760;BME280;3924;48.830;9.262;2023-05-29T02:13:48;98546.53;;;15.80;57.13
7760;BME280;3924;48.830;9.262;2023-05-29T02:16:14;98546.03;;;15.78;57.37
7760;BME280;3924;48.830;9.262;2023-05-29T02:18:41;98548.78;;;15.78;57.29
7760;BME280;3924;48.830;9.262;2023-05-29T02:21:08;98539.31;;;15.75;57.24
7760;BME280;3924;48.830;9.262;2023-05-29T02:23:34;98543.81;;;15.71;57.66
7760;BME280;3924;48.830;9.262;2023-05-29T02:26:01;98544.81;;;15.67;57.63
7760;BME280;3924;48.830;9.262;2023-05-29T02:28:27;98547.72;;;15.62;57.81
7760;BME280;3924;48.830;9.262;2023-05-29T02:30:54;98548.97;;;15.55;58.00
7760;BME280;3924;48.830;9.262;2023-05-29T02:33:21;98545.94;;;15.48;58.12
7760;BME280;3924;48.830;9.262;2023-05-29T02:35:47;98545.16;;;15.48;57.92
7760;BME280;3924;48.830;9.262;2023-05-29T02:38:14;98547.06;;;15.47;58.10
7760;BME280;3924;48.830;9.262;2023-05-29T02:40:40;98546.59;;;15.45;58.13
7760;BME280;3924;48.830;9.262;2023-05-29T02:43:08;98542.91;;;15.41;58.10
7760;BME280;3924;48.830;9.262;2023-05-29T02:45:35;98544.03;;;15.40;58.02
7760;BME280;3924;48.830;9.262;2023-05-29T02:48:01;98545.97;;;15.40;58.16
7760;BME280;3924;48.830;9.262;2023-05-29T02:50:28;98540.97;;;15.42;58.32
7760;BME280;3924;48.830;9.262;2023-05-29T02:52:54;98550.47;;;15.44;58.30
7760;BME280;3924;48.830;9.262;2023-05-29T02:55:21;98545.81;;;15.45;58.32
7760;BME280;3924;48.830;9.262;2023-05-29T02:57:47;98548.03;;;15.43;58.31
7760;BME280;3924;48.830;9.262;2023-05-29T03:00:17;98543.38;;;15.43;58.45
7760;BME280;3924;48.830;9.262;2023-05-29T03:02:44;98537.13;;;15.43;58.49
7760;BME280;3924;48.830;9.262;2023-05-29T03:05:11;98544.38;;;15.39;58.48
7760;BME280;3924;48.830;9.262;2023-05-29T03:07:38;98533.75;;;15.37;58.45
7760;BME280;3924;48.830;9.262;2023-05-29T03:10:04;98537.59;;;15.36;58.64
7760;BME280;3924;48.830;9.262;2023-05-29T03:12:31;98543.72;;;15.33;58.79
7760;BME280;3924;48.830;9.262;2023-05-29T03:14:57;98538.75;;;15.26;58.91
7760;BME280;3924;48.830;9.262;2023-05-29T03:17:24;98540.22;;;15.24;59.25
7760;BME280;3924;48.830;9.262;2023-05-29T03:19:51;98538.59;;;15.23;59.29
7760;BME280;3924;48.830;9.262;2023-05-29T03:22:18;98542.44;;;15.22;59.25
7760;BME280;3924;48.830;9.262;2023-05-29T03:24:44;98543.09;;;15.19;59.41
7760;BME280;3924;48.830;9.262;2023-05-29T03:27:11;98544.72;;;15.20;59.39
7760;BME280;3924;48.830;9.262;2023-05-29T03:29:38;98551.31;;;15.19;59.50
7760;BME280;3924;48.830;9.262;2023-05-29T03:32:04;98545.03;;;15.10;59.59
7760;BME280;3924;48.830;9.262;2023-05-29T03:34:31;98546.66;;;15.11;59.75
7760;BME280;3924;48.830;9.262;2023-05-29T03:36:58;98538.94;;;15.13;59.75
7760;BME280;3924;48.830;9.262;2023-05-29T03:39:24;98550.19;;;15.11;59.88
7760;BME280;3924;48.830;9.262;2023-05-29T03:41:50;98543.41;;;15.09;59.59
7760;BME280;3924;48.830;9.262;2023-05-29T03:44:17;98540.22;;;15.07;59.91
7760;BME280;3924;48.830;9.262;2023-05-29T03:46:43;98543.44;;;15.00;60.10
7760;BME280;3924;48.830;9.262;2023-05-29T03:49:10;98549.69;;;15.00;59.95
7760;BME280;3924;48.830;9.262;2023-05-29T03:51:36;98556.28;;;14.99;60.00
7760;BME280;3924;48.830;9.262;2023-05-29T03:54:03;98556.94;;;14.96;60.28
7760;BME280;3924;48.830;9.262;2023-05-29T03:56:30;98556.28;;;14.99;60.13
7760;BME280;3924;48.830;9.262;2023-05-29T03:58:56;98560.94;;;14.99;60.34
7760;BME280;3924;48.830;9.262;2023-05-29T04:01:23;98557.88;;;15.00;60.38
7760;BME280;3924;48.830;9.262;2023-05-29T04:03:50;98565.94;;;15.05;60.35
7760;BME280;3924;48.830;9.262;2023-05-29T04:06:17;98571.38;;;15.05;60.24
7760;BME280;3924;48.830;9.262;2023-05-29T04:08:44;98576.19;;;15.09;60.32
7760;BME280;3924;48.830;9.262;2023-05-29T04:11:11;98578.91;;;15.09;60.19
7760;BME280;3924;48.830;9.262;2023-05-29T04:13:38;98582.97;;;15.11;60.37
7760;BME280;3924;48.830;9.262;2023-05-29T04:16:04;98578.28;;;15.12;60.39
7760;BME280;3924;48.830;9.262;2023-05-29T04:18:31;98594.34;;;15.13;60.50
7760;BME280;3924;48.830;9.262;2023-05-29T04:20:58;98577.97;;;15.13;60.35
7760;BME280;3924;48.830;9.262;2023-05-29T04:23:25;98585.03;;;15.14;60.67
7760;BME280;3924;48.830;9.262;2023-05-29T04:25:51;98594.53;;;15.17;60.63
7760;BME280;3924;48.830;9.262;2023-05-29T04:28:19;98593.53;;;15.21;60.42
7760;BME280;3924;48.830;9.262;2023-05-29T04:30:49;98600.78;;;15.26;60.47
7760;BME280;3924;48.830;9.262;2023-05-29T04:33:17;98605.28;;;15.30;60.42
7760;BME280;3924;48.830;9.262;2023-05-29T04:35:44;98607.38;;;15.25;60.28
7760;BME280;3924;48.830;9.262;2023-05-29T04:38:11;98608.81;;;15.22;60.54
7760;BME280;3924;48.830;9.262;2023-05-29T04:40:38;98609.78;;;15.26;60.56
7760;BME280;3924;48.830;9.262;2023-05-29T04:43:06;98604.16;;;15.31;60.49
7760;BME280;3924;48.830;9.262;2023-05-29T04:45:34;98596.41;;;15.42;60.28
7760;BME280;3924;48.830;9.262;2023-05-29T04:48:04;98604.94;;;15.58;60.07
7760;BME280;3924;48.830;9.262;2023-05-29T04:50:30;98611.84;;;15.55;59.93
7760;BME280;3924;48.830;9.262;2023-05-29T04:52:58;98619.09;;;15.51;60.05
7760;BME280;3924;48.830;9.262;2023-05-29T04:55:24;98621.97;;;15.55;59.98
7760;BME280;3924;48.830;9.262;2023-05-29T04:57:51;98614.09;;;15.53;59.91
7760;BME280;3924;48.830;9.262;2023-05-29T05:00:18;98617.16;;;15.52;59.90
7760;BME280;3924;48.830;9.262;2023-05-29T05:02:45;98616.66;;;15.58;59.82
7760;BME280;3924;48.830;9.262;2023-05-29T05:05:12;98612.97;;;15.72;59.52
7760;BME280;3924;48.830;9.262;2023-05-29T05:07:38;98626.75;;;15.84;59.62
7760;BME280;3924;48.830;9.262;2023-05-29T05:10:07;98618.19;;;16.03;59.13
7760;BME280;3924;48.830;9.262;2023-05-29T05:12:33;98622.16;;;16.23;58.53
7760;BME280;3924;48.830;9.262;2023-05-29T05:15:00;98619.22;;;16.28;58.46
7760;BME280;3924;48.830;9.262;2023-05-29T05:17:27;98628.41;;;16.23;58.51
7760;BME280;3924;48.830;9.262;2023-05-29T05:19:53;98625.00;;;16.35;58.27
7760;BME280;3924;48.830;9.262;2023-05-29T05:26:44;98626.66;;;16.86;57.63
7760;BME280;3924;48.830;9.262;2023-05-29T05:33:18;98632.13;;;17.37;56.53
7760;BME280;3924;48.830;9.262;2023-05-29T05:36:08;98632.75;;;17.55;56.15
7760;BME280;3924;48.830;9.262;2023-05-29T05:40:02;98633.44;;;17.52;56.24
7760;BME280;3924;48.830;9.262;2023-05-29T05:50:56;98635.97;;;17.77;55.75
7760;BME280;3924;48.830;9.262;2023-05-29T05:53:30;98640.38;;;17.49;55.85
7760;BME280;3924;48.830;9.262;2023-05-29T05:56:12;98647.59;;;17.33;56.43
7760;BME280;3924;48.830;9.262;2023-05-29T06:02:00;98661.09;;;16.96;56.98
7760;BME280;3924;48.830;9.262;2023-05-29T06:08:57;98659.28;;;17.00;56.82
7760;BME280;3924;48.830;9.262;2023-05-29T06:11:45;98660.88;;;17.01;57.10
7760;BME280;3924;48.830;9.262;2023-05-29T06:17:55;98672.19;;;17.20;56.50
7760;BME280;3924;48.830;9.262;2023-05-29T06:24:05;98673.88;;;17.75;55.57
7760;BME280;3924;48.830;9.262;2023-05-29T06:30:09;98690.19;;;17.93;55.09
7760;BME280;3924;48.830;9.262;2023-05-29T06:38:06;98684.47;;;17.98;54.72
7760;BME280;3924;48.830;9.262;2023-05-29T06:43:56;98693.22;;;18.12;54.70
7760;BME280;3924;48.830;9.262;2023-05-29T06:46:56;98694.19;;;18.41;54.08
7760;BME280;3924;48.830;9.262;2023-05-29T06:59:28;98692.16;;;19.11;52.79
7760;BME280;3924;48.830;9.262;2023-05-29T07:02:24;98704.38;;;19.38;52.35
7760;BME280;3924;48.830;9.262;2023-05-29T07:05:26;98707.63;;;19.68;51.88
7760;BME280;3924;48.830;9.262;2023-05-29T07:08:00;98711.81;;;19.37;52.43
7760;BME280;3924;48.830;9.262;2023-05-29T07:10:51;98700.25;;;19.44;52.27
7760;BME280;3924;48.830;9.262;2023-05-29T07:13:39;98709.94;;;19.54;52.00
7760;BME280;3924;48.830;9.262;2023-05-29T07:23:14;98703.38;;;19.30;52.24
7760;BME280;3924;48.830;9.262;2023-05-29T07:25:41;98706.03;;;19.55;51.67
7760;BME280;3924;48.830;9.262;2023-05-29T07:28:07;98712.66;;;19.78;51.07
7760;BME280;3924;48.830;9.262;2023-05-29T07:30:47;98705.88;;;19.76;51.24
7760;BME280;3924;48.830;9.262;2023-05-29T07:33:14;98720.28;;;19.97;50.75
7760;BME280;3924;48.830;9.262;2023-05-29T07:35:41;98719.19;;;20.02;50.67
7760;BME280;3924;48.830;9.262;2023-05-29T07:38:07;98712.53;;;20.03;50.48
7760;BME280;3924;48.830;9.262;2023-05-29T07:40:34;98717.31;;;20.18;50.41
7760;BME280;3924;48.830;9.262;2023-05-29T07:43:00;98714.94;;;20.32;50.05
7760;BME280;3924;48.830;9.262;2023-05-29T07:45:27;98716.72;;;20.40;49.94
7760;BME280;3924;48.830;9.262;2023-05-29T07:47:53;98711.78;;;20.62;49.43
7760;BME280;3924;48.830;9.262;2023-05-29T07:50:20;98712.41;;;20.87;49.11
7760;BME280;3924;48.830;9.262;2023-05-29T07:52:46;98704.97;;;21.22;48.63
7760;BME280;3924;48.830;9.262;2023-05-29T07:55:13;98703.63;;;21.32;48.37
7760;BME280;3924;48.830;9.262;2023-05-29T07:57:39;98704.69;;;21.43;48.21
7760;BME280;3924;48.830;9.262;2023-05-29T08:00:06;98705.59;;;21.32;48.32
7760;BME280;3924;48.830;9.262;2023-05-29T08:02:35;98703.44;;;21.25;48.51
7760;BME280;3924;48.830;9.262;2023-05-29T08:05:03;98709.47;;;21.46;47.97
7760;BME280;3924;48.830;9.262;2023-05-29T08:07:30;98703.25;;;21.69;47.80
7760;BME280;3924;48.830;9.262;2023-05-29T08:09:56;98702.06;;;21.89;47.27
7760;BME280;3924;48.830;9.262;2023-05-29T08:12:23;98700.69;;;21.99;47.22
7760;BME280;3924;48.830;9.262;2023-05-29T08:14:50;98698.44;;;22.04;47.09
7760;BME280;3924;48.830;9.262;2023-05-29T08:17:17;98706.13;;;21.95;47.33
7760;BME280;3924;48.830;9.262;2023-05-29T08:19:44;98707.88;;;22.03;47.09
7760;BME280;3924;48.830;9.262;2023-05-29T08:22:12;98709.69;;;22.34;46.72
7760;BME280;3924;48.830;9.262;2023-05-29T08:24:40;98703.69;;;22.52;46.34
7760;BME280;3924;48.830;9.262;2023-05-29T08:27:06;98704.41;;;22.72;46.07
7760;BME280;3924;48.830;9.262;2023-05-29T08:29:33;98712.50;;;22.84;45.74
7760;BME280;3924;48.830;9.262;2023-05-29T08:31:59;98703.25;;;22.73;46.12
7760;BME280;3924;48.830;9.262;2023-05-29T08:34:26;98697.72;;;22.73;45.95
7760;BME280;3924;48.830;9.262;2023-05-29T08:36:52;98710.53;;;22.61;45.96
7760;BME280;3924;48.830;9.262;2023-05-29T08:39:21;98706.25;;;22.41;46.87
7760;BME280;3924;48.830;9.262;2023-05-29T08:41:59;98704.56;;;22.14;47.01
7760;BME280;3924;48.830;9.262;2023-05-29T08:44:30;98703.75;;;21.94;47.43
7760;BME280;3924;48.830;9.262;2023-05-29T08:47:01;98700.59;;;21.95;47.55
7760;BME280;3924;48.830;9.262;2023-05-29T08:49:40;98699.16;;;22.21;47.13
7760;BME280;3924;48.830;9.262;2023-05-29T08:52:19;98704.03;;;22.73;46.27
7760;BME280;3924;48.830;9.262;2023-05-29T08:54:46;98691.31;;;22.91;46.04
7760;BME280;3924;48.830;9.262;2023-05-29T08:57:13;98699.13;;;23.12;45.55
7760;BME280;3924;48.830;9.262;2023-05-29T08:59:42;98703.75;;;23.31;45.35
7760;BME280;3924;48.830;9.262;2023-05-29T09:02:10;98695.75;;;23.23;45.35
7760;BME280;3924;48.830;9.262;2023-05-29T09:04:42;98701.16;;;23.15;45.54
7760;BME280;3924;48.830;9.262;2023-05-29T09:07:11;98695.22;;;23.13;45.59
7760;BME280;3924;48.830;9.262;2023-05-29T09:09:39;98709.56;;;22.96;46.00
7760;BME280;3924;48.830;9.262;2023-05-29T09:12:05;98701.78;;;23.05;45.73
7760;BME280;3924;48.830;9.262;2023-05-29T09:14:43;98703.75;;;23.31;45.15
7760;BME280;3924;48.830;9.262;2023-05-29T09:17:12;98705.31;;;23.29;45.49
7760;BME280;3924;48.830;9.262;2023-05-29T09:19:39;98694.63;;;23.27;45.16
7760;BME280;3924;48.830;9.262;2023-05-29T09:26:17;98702.09;;;23.53;45.14
7760;BME280;3924;48.830;9.262;2023-05-29T09:29:42;98697.22;;;23.43;44.74
7760;BME280;3924;48.830;9.262;2023-05-29T09:37:22;98695.31;;;23.47;44.86
7760;BME280;3924;48.830;9.262;2023-05-29T10:00:15;98689.03;;;24.17;43.55
7760;BME280;3924;48.830;9.262;2023-05-29T10:22:20;98681.97;;;25.78;39.89
7760;BME280;3924;48.830;9.262;2023-05-29T10:24:50;98677.56;;;25.73;39.54
7760;BME280;3924;48.830;9.262;2023-05-29T10:27:18;98677.25;;;26.00;39.21
7760;BME280;3924;48.830;9.262;2023-05-29T10:30:02;98672.13;;;26.12;38.68
7760;BME280;3924;48.830;9.262;2023-05-29T10:32:59;98668.19;;;26.17;38.46
7760;BME280;3924;48.830;9.262;2023-05-29T10:38:17;98675.28;;;25.97;38.42
7760;BME280;3924;48.830;9.262;2023-05-29T10:40:45;98675.31;;;26.04;38.33
7760;BME280;3924;48.830;9.262;2023-05-29T10:45:53;98671.31;;;26.05;38.06
7760;BME280;3924;48.830;9.262;2023-05-29T10:50:55;98665.84;;;26.40;37.50
7760;BME280;3924;48.830;9.262;2023-05-29T10:53:27;98660.31;;;26.48;37.32
7760;BME280;3924;48.830;9.262;2023-05-29T10:55:59;98675.44;;;26.64;36.90
7760;BME280;3924;48.830;9.262;2023-05-29T10:58:27;98664.28;;;26.68;37.10
7760;BME280;3924;48.830;9.262;2023-05-29T11:00:54;98665.88;;;26.76;36.63
7760;BME280;3924;48.830;9.262;2023-05-29T11:03:24;98659.53;;;26.65;36.79
7760;BME280;3924;48.830;9.262;2023-05-29T11:06:16;98665.47;;;26.53;36.52
7760;BME280;3924;48.830;9.262;2023-05-29T11:08:48;98655.53;;;26.44;36.73
7760;BME280;3924;48.830;9.262;2023-05-29T11:13:56;98652.38;;;26.67;36.00
7760;BME280;3924;48.830;9.262;2023-05-29T11:18:56;98658.72;;;26.68;36.05
7760;BME280;3924;48.830;9.262;2023-05-29T11:21:29;98650.78;;;26.81;35.55
7760;BME280;3924;48.830;9.262;2023-05-29T11:23:58;98658.69;;;26.89;35.87
7760;BME280;3924;48.830;9.262;2023-05-29T11:26:27;98665.06;;;27.08;35.23
7760;BME280;3924;48.830;9.262;2023-05-29T11:28:57;98660.31;;;27.05;35.16
7760;BME280;3924;48.830;9.262;2023-05-29T11:31:24;98661.06;;;27.02;34.97
7760;BME280;3924;48.830;9.262;2023-05-29T11:33:54;98655.50;;;27.23;34.74
7760;BME280;3924;48.830;9.262;2023-05-29T11:36:23;98655.47;;;27.41;34.53
7760;BME280;3924;48.830;9.262;2023-05-29T11:38:51;98664.19;;;27.43;34.11
7760;BME280;3924;48.830;9.262;2023-05-29T11:41:17;98663.03;;;27.40;33.71
7760;BME280;3924;48.830;9.262;2023-05-29T11:43:44;98655.44;;;27.37;33.71
7760;BME280;3924;48.830;9.262;2023-05-29T11:46:19;98648.28;;;27.43;33.71
7760;BME280;3924;48.830;9.262;2023-05-29T11:48:46;98657.00;;;27.52;33.20
7760;BME280;3924;48.830;9.262;2023-05-29T11:51:13;98660.59;;;27.49;33.35
7760;BME280;3924;48.830;9.262;2023-05-29T11:53:46;98658.22;;;27.44;33.20
7760;BME280;3924;48.830;9.262;2023-05-29T11:56:13;98651.50;;;27.38;33.49
7760;BME280;3924;48.830;9.262;2023-05-29T11:58:40;98654.28;;;27.31;33.16
7760;BME280;3924;48.830;9.262;2023-05-29T12:01:07;98654.59;;;27.51;32.93
7760;BME280;3924;48.830;9.262;2023-05-29T12:06:06;98649.44;;;27.49;32.56
7760;BME280;3924;48.830;9.262;2023-05-29T12:08:34;98658.19;;;27.51;32.81
7760;BME280;3924;48.830;9.262;2023-05-29T12:11:01;98651.38;;;27.63;32.24
7760;BME280;3924;48.830;9.262;2023-05-29T12:13:28;98652.94;;;27.82;32.05
7760;BME280;3924;48.830;9.262;2023-05-29T12:15:59;98654.09;;;27.88;31.68
7760;BME280;3924;48.830;9.262;2023-05-29T12:18:29;98654.09;;;27.85;31.66
7760;BME280;3924;48.830;9.262;2023-05-29T12:20:57;98644.13;;;27.94;31.69
7760;BME280;3924;48.830;9.262;2023-05-29T12:23:24;98641.66;;;28.03;31.24
7760;BME280;3924;48.830;9.262;2023-05-29T12:25:51;98653.63;;;28.00;31.14
7760;BME280;3924;48.830;9.262;2023-05-29T12:28:22;98644.13;;;27.94;31.27
7760;BME280;3924;48.830;9.262;2023-05-29T12:30:49;98647.19;;;28.11;31.07
7760;BME280;3924;48.830;9.262;2023-05-29T12:33:32;98647.97;;;28.15;31.20
7760;BME280;3924;48.830;9.262;2023-05-29T12:36:06;98645.63;;;28.06;30.64
7760;BME280;3924;48.830;9.262;2023-05-29T12:38:46;98650.34;;;28.13;30.31
7760;BME280;3924;48.830;9.262;2023-05-29T12:41:26;98655.97;;;28.09;30.38
7760;BME280;3924;48.830;9.262;2023-05-29T12:43:57;98657.13;;;28.12;30.19
7760;BME280;3924;48.830;9.262;2023-05-29T12:46:25;98652.72;;;28.18;30.22
7760;BME280;3924;48.830;9.262;2023-05-29T12:48:54;98649.50;;;28.23;29.64
7760;BME280;3924;48.830;9.262;2023-05-29T12:51:27;98651.41;;;28.40;29.93
7760;BME280;3924;48.830;9.262;2023-05-29T12:53:54;98652.66;;;28.36;29.49
7760;BME280;3924;48.830;9.262;2023-05-29T12:56:22;98650.97;;;28.45;29.30
7760;BME280;3924;48.830;9.262;2023-05-29T12:58:50;98648.06;;;28.59;29.62
7760;BME280;3924;48.830;9.262;2023-05-29T13:01:18;98654.00;;;28.61;29.08
7760;BME280;3924;48.830;9.262;2023-05-29T13:03:48;98650.13;;;28.52;29.06
7760;BME280;3924;48.830;9.262;2023-05-29T13:06:15;98656.53;;;28.45;29.05
7760;BME280;3924;48.830;9.262;2023-05-29T13:08:41;98658.16;;;28.43;28.99
7760;BME280;3924;48.830;9.262;2023-05-29T13:11:08;98646.59;;;28.44;29.06
7760;BME280;3924;48.830;9.262;2023-05-29T13:13:34;98648.91;;;28.56;28.84
7760;BME280;3924;48.830;9.262;2023-05-29T13:16:01;98646.41;;;28.66;28.92
7760;BME280;3924;48.830;9.262;2023-05-29T13:18:28;98637.34;;;28.54;28.84
7760;BME280;3924;48.830;9.262;2023-05-29T13:20:54;98633.38;;;28.55;28.77
7760;BME280;3924;48.830;9.262;2023-05-29T13:23:21;98646.91;;;28.57;28.81
7760;BME280;3924;48.830;9.262;2023-05-29T13:25:47;98640.91;;;28.58;28.70
7760;BME280;3924;48.830;9.262;2023-05-29T13:28:15;98638.34;;;28.75;28.38
7760;BME280;3924;48.830;9.262;2023-05-29T13:30:42;98635.06;;;28.87;28.09
7760;BME280;3924;48.830;9.262;2023-05-29T13:33:09;98623.53;;;28.85;28.19
7760;BME280;3924;48.830;9.262;2023-05-29T13:35:36;98632.38;;;28.76;28.12
7760;BME280;3924;48.830;9.262;2023-05-29T13:38:03;98638.81;;;28.70;28.47
7760;BME280;3924;48.830;9.262;2023-05-29T13:40:29;98630.41;;;28.73;28.23
7760;BME280;3924;48.830;9.262;2023-05-29T13:42:56;98630.41;;;28.73;28.25
7760;BME280;3924;48.830;9.262;2023-05-29T13:45:23;98634.03;;;28.67;28.48
7760;BME280;3924;48.830;9.262;2023-05-29T13:47:49;98624.03;;;28.73;28.05
7760;BME280;3924;48.830;9.262;2023-05-29T13:50:16;98630.03;;;28.71;28.29
7760;BME280;3924;48.830;9.262;2023-05-29T13:52:42;98620.94;;;28.64;28.14
7760;BME280;3924;48.830;9.262;2023-05-29T13:55:09;98621.34;;;28.62;28.14
7760;BME280;3924;48.830;9.262;2023-05-29T13:57:36;98617.72;;;28.69;27.96
7760;BME280;3924;48.830;9.262;2023-05-29T14:00:04;98627.66;;;28.70;27.99
7760;BME280;3924;48.830;9.262;2023-05-29T14:02:35;98611.72;;;28.70;27.89
7760;BME280;3924;48.830;9.262;2023-05-29T14:05:01;98603.69;;;28.72;28.33
7760;BME280;3924;48.830;9.262;2023-05-29T14:07:28;98608.13;;;28.70;27.93
7760;BME280;3924;48.830;9.262;2023-05-29T14:09:55;98600.50;;;28.74;28.02
7760;BME280;3924;48.830;9.262;2023-05-29T14:12:21;98598.06;;;28.79;27.99
7760;BME280;3924;48.830;9.262;2023-05-29T14:14:48;98605.53;;;28.93;27.81
7760;BME280;3924;48.830;9.262;2023-05-29T14:17:14;98602.72;;;28.97;27.86
7760;BME280;3924;48.830;9.262;2023-05-29T14:19:41;98605.88;;;28.95;27.67
7760;BME280;3924;48.830;9.262;2023-05-29T14:22:08;98595.50;;;28.96;27.98
7760;BME280;3924;48.830;9.262;2023-05-29T14:24:34;98594.66;;;29.02;27.67
7760;BME280;3924;48.830;9.262;2023-05-29T14:27:02;98602.31;;;28.95;27.76
7760;BME280;3924;48.830;9.262;2023-05-29T14:29:29;98589.22;;;28.84;27.88
7760;BME280;3924;48.830;9.262;2023-05-29T14:31:55;98584.50;;;28.78;27.76
7760;BME280;3924;48.830;9.262;2023-05-29T14:34:22;98601.13;;;28.88;27.90
7760;BME280;3924;48.830;9.262;2023-05-29T14:36:48;98591.56;;;28.93;27.79
7760;BME280;3924;48.830;9.262;2023-05-29T14:39:17;98589.19;;;28.88;27.92
7760;BME280;3924;48.830;9.262;2023-05-29T14:41:43;98592.44;;;28.83;27.88
7760;BME280;3924;48.830;9.262;2023-05-29T14:44:10;98586.81;;;28.86;27.72
7760;BME280;3924;48.830;9.262;2023-05-29T14:46:38;98589.25;;;28.81;27.85
7760;BME280;3924;48.830;9.262;2023-05-29T14:49:05;98593.59;;;28.85;27.83
7760;BME280;3924;48.830;9.262;2023-05-29T14:51:32;98590.34;;;28.94;27.83
7760;BME280;3924;48.830;9.262;2023-05-29T14:53:59;98591.84;;;29.02;27.72
7760;BME280;3924;48.830;9.262;2023-05-29T14:56:26;98581.44;;;29.10;27.60
7760;BME280;3924;48.830;9.262;2023-05-29T14:58:53;98586.88;;;29.21;27.65
7760;BME280;3924;48.830;9.262;2023-05-29T15:01:19;98589.28;;;29.19;27.84
7760;BME280;3924;48.830;9.262;2023-05-29T15:03:47;98584.94;;;29.18;27.57
7760;BME280;3924;48.830;9.262;2023-05-29T15:06:13;98581.44;;;29.06;27.86
7760;BME280;3924;48.830;9.262;2023-05-29T15:08:40;98587.41;;;29.08;27.73
7760;BME280;3924;48.830;9.262;2023-05-29T15:11:09;98589.47;;;29.01;28.10
7760;BME280;3924;48.830;9.262;2023-05-29T15:13:36;98582.38;;;28.96;27.90
7760;BME280;3924;48.830;9.262;2023-05-29T15:16:02;98580.50;;;28.79;27.90
7760;BME280;3924;48.830;9.262;2023-05-29T15:18:30;98584.59;;;28.71;28.26
7760;BME280;3924;48.830;9.262;2023-05-29T15:20:57;98587.03;;;28.65;28.40
7760;BME280;3924;48.830;9.262;2023-05-29T15:23:27;98581.66;;;28.85;28.25
7760;BME280;3924;48.830;9.262;2023-05-29T15:25:54;98577.97;;;28.95;27.99
7760;BME280;3924;48.830;9.262;2023-05-29T15:28:21;98577.06;;;29.05;27.86
7760;BME280;3924;48.830;9.262;2023-05-29T15:30:47;98577.03;;;29.09;27.86
7760;BME280;3924;48.830;9.262;2023-05-29T15:33:14;98564.97;;;29.15;27.75
7760;BME280;3924;48.830;9.262;2023-05-29T15:35:41;98561.81;;;29.13;27.83
7760;BME280;3924;48.830;9.262;2023-05-29T15:38:09;98569.03;;;29.11;27.82
7760;BME280;3924;48.830;9.262;2023-05-29T15:40:36;98565.53;;;29.03;28.06
7760;BME280;3924;48.830;9.262;2023-05-29T15:43:03;98569.13;;;29.04;28.10